sensor_id;sensor_type;location;lat;lon;timestamp;temperature;humidity
11836;DHT22;5977;51.972;7.640;2023-09-12T00:00:50;26.20;98.70
11836;DHT22;5977;51.972;7.640;2023-09-12T00:03:19;26.20;98.60
11836;DHT22;5977;51.972;7.640;2023-09-12T00:05:51;26.20;98.60
11836;DHT22;5977;51.972;7.640;2023-09-12T00:08:19;26.20;98.60
11836;DHT22;5977;51.972;7.640;2023-09-12T00:10:58;26.30;98.70
11836;DHT22;5977;51.972;7.640;2023-09-12T00:13:26;26.30;98.60
11836;DHT22;5977;51.972;7.640;2023-09-12T00:15:54;26.20;98.70
11836;DHT22;5977;51.972;7.640;2023-09-12T00:18:22;26.20;98.80
11836;DHT22;5977;51.972;7.640;2023-09-12T00:20:50;26.30;98.90
11836;DHT22;5977;51.972;7.640;2023-09-12T00:23:19;26.20;98.90
11836;DHT22;5977;51.972;7.640;2023-09-12T00:25:50;26.20;98.90
11836;DHT22;5977;51.972;7.640;2023-09-12T00:28:19;26.20;98.90
11836;DHT22;5977;51.972;7.640;2023-09-12T00:30:47;26.30;99.00
11836;DHT22;5977;51.972;7.640;2023-09-12T00:33:15;26.30;99.00
11836;DHT22;5977;51.972;7.640;2023-09-12T00:35:43;26.30;99.10
11836;DHT22;5977;51.972;7.640;2023-09-12T00:38:11;26.30;99.10
11836;DHT22;5977;51.972;7.640;2023-09-12T00:40:39;26.20;99.00
11836;DHT22;5977;51.972;7.640;2023-09-12T00:43:08;26.30;99.40
11836;DHT22;5977;51.972;7.640;2023-09-12T00:45:36;26.30;99.10
11836;DHT22;5977;51.972;7.640;2023-09-12T00:48:06;26.30;99.20
11836;DHT22;5977;51.972;7.640;2023-09-12T00:50:34;26.30;99.20
11836;DHT22;5977;51.972;7.640;2023-09-12T00:53:03;26.30;99.20
11836;DHT22;5977;51.972;7.640;2023-09-12T00:55:32;26.20;99.20
11836;DHT22;5977;51.972;7.640;2023-09-12T00:58:02;26.10;99.20
11836;DHT22;5977;51.972;7.640;2023-09-12T01:00:31;26.20;99.20
11836;DHT22;5977;51.972;7.640;2023-09-12T01:02:59;26.20;99.20
11836;DHT22;5977;51.972;7.640;2023-09-12T01:05:28;26.20;99.30
11836;DHT22;5977;51.972;7.640;2023-09-12T01:07:56;26.30;99.40
11836;DHT22;5977;51.972;7.640;2023-09-12T01:10:24;26.20;99.40
11836;DHT22;5977;51.972;7.640;2023-09-12T01:12:53;26.20;99.40
11836;DHT22;5977;51.972;7.640;2023-09-12T01:15:21;26.20;99.40
11836;DHT22;5977;51.972;7.640;2023-09-12T01:17:50;26.30;99.50
11836;DHT22;5977;51.972;7.640;2023-09-12T01:20:24;26.30;99.50
11836;DHT22;5977;51.972;7.640;2023-09-12T01:22:59;26.20;99.40
11836;DHT22;5977;51.972;7.640;2023-09-12T01:25:52;26.20;99.40
11836;DHT22;5977;51.972;7.640;2023-09-12T01:28:30;26.30;99.40
11836;DHT22;5977;51.972;7.640;2023-09-12T01:31:00;26.20;99.50
11836;DHT22;5977;51.972;7.640;2023-09-12T01:33:29;26.20;99.50
11836;DHT22;5977;51.972;7.640;2023-09-12T01:35:59;26.20;99.60
11836;DHT22;5977;51.972;7.640;2023-09-12T01:38:27;26.20;99.50
11836;DHT22;5977;51.972;7.640;2023-09-12T01:40:56;26.10;99.60
11836;DHT22;5977;51.972;7.640;2023-09-12T01:43:26;26.10;99.60
11836;DHT22;5977;51.972;7.640;2023-09-12T01:45:57;26.10;99.60
11836;DHT22;5977;51.972;7.640;2023-09-12T01:48:30;26.20;99.70
11836;DHT22;5977;51.972;7.640;2023-09-12T01:51:01;26.20;99.70
11836;DHT22;5977;51.972;7.640;2023-09-12T01:53:29;26.10;99.90
11836;DHT22;5977;51.972;7.640;2023-09-12T01:55:58;26.00;99.80
11836;DHT22;5977;51.972;7.640;2023-09-12T01:58:28;26.10;99.90
11836;DHT22;5977;51.972;7.640;2023-09-12T02:00:56;26.00;99.80
11836;DHT22;5977;51.972;7.640;2023-09-12T02:03:25;26.10;99.90
11836;DHT22;5977;51.972;7.640;2023-09-12T02:05:53;26.10;99.90
11836;DHT22;5977;51.972;7.640;2023-09-12T02:08:20;26.10;99.90
11836;DHT22;5977;51.972;7.640;2023-09-12T02:10:48;26.10;99.90
11836;DHT22;5977;51.972;7.640;2023-09-12T02:13:16;26.10;99.90
11836;DHT22;5977;51.972;7.640;2023-09-12T02:15:46;26.00;99.90
11836;DHT22;5977;51.972;7.640;2023-09-12T02:18:14;26.10;99.90
11836;DHT22;5977;51.972;7.640;2023-09-12T02:20:42;26.10;99.90
11836;DHT22;5977;51.972;7.640;2023-09-12T02:23:12;26.10;99.90
11836;DHT22;5977;51.972;7.640;2023-09-12T02:25:41;26.00;99.90
11836;DHT22;5977;51.972;7.640;2023-09-12T02:28:08;26.10;99.90
11836;DHT22;5977;51.972;7.640;2023-09-12T02:30:38;26.10;99.90
11836;DHT22;5977;51.972;7.640;2023-09-12T02:33:08;25.90;99.90
11836;DHT22;5977;51.972;7.640;2023-09-12T02:35:36;26.00;99.90
11836;DHT22;5977;51.972;7.640;2023-09-12T02:38:04;26.00;99.90
11836;DHT22;5977;51.972;7.640;2023-09-12T02:40:32;26.00;99.90
11836;DHT22;5977;51.972;7.640;2023-09-12T02:43:00;25.90;99.90
11836;DHT22;5977;51.972;7.640;2023-09-12T02:45:28;26.00;99.90
11836;DHT22;5977;51.972;7.640;2023-09-12T02:47:56;25.90;99.90
11836;DHT22;5977;51.972;7.640;2023-09-12T02:50:26;25.90;99.90
11836;DHT22;5977;51.972;7.640;2023-09-12T02:52:54;25.90;99.90
11836;DHT22;5977;51.972;7.640;2023-09-12T02:55:22;26.00;99.90
11836;DHT22;5977;51.972;7.640;2023-09-12T02:57:50;26.00;99.90
11836;DHT22;5977;51.972;7.640;2023-09-12T03:00:18;25.90;99.90
11836;DHT22;5977;51.972;7.640;2023-09-12T03:02:46;26.00;99.90
11836;DHT22;5977;51.972;7.640;2023-09-12T03:05:14;25.90;99.90
11836;DHT22;5977;51.972;7.640;2023-09-12T03:07:44;25.90;99.90
11836;DHT22;5977;51.972;7.640;2023-09-12T03:10:12;26.00;99.90
11836;DHT22;5977;51.972;7.640;2023-09-12T03:12:40;25.90;99.90
11836;DHT22;5977;51.972;7.640;2023-09-12T03:15:09;25.90;99.90
11836;DHT22;5977;51.972;7.640;2023-09-12T03:17:37;25.90;99.90
11836;DHT22;5977;51.972;7.640;2023-09-12T03:20:06;25.90;99.90
11836;DHT22;5977;51.972;7.640;2023-09-12T03:22:36;25.90;99.90
11836;DHT22;5977;51.972;7.640;2023-09-12T03:25:07;25.90;99.90
11836;DHT22;5977;51.972;7.640;2023-09-12T03:27:35;25.90;99.90
11836;DHT22;5977;51.972;7.640;2023-09-12T03:30:04;25.90;99.90
11836;DHT22;5977;51.972;7.640;2023-09-12T03:32:32;25.80;99.90
11836;DHT22;5977;51.972;7.640;2023-09-12T03:35:00;25.90;99.90
11836;DHT22;5977;51.972;7.640;2023-09-12T03:37:28;25.80;99.90
11836;DHT22;5977;51.972;7.640;2023-09-12T03:39:56;25.80;99.90
11836;DHT22;5977;51.972;7.640;2023-09-12T03:42:25;25.90;99.90
11836;DHT22;5977;51.972;7.640;2023-09-12T03:45:08;25.80;99.90
11836;DHT22;5977;51.972;7.640;2023-09-12T03:47:36;25.80;99.90
11836;DHT22;5977;51.972;7.640;2023-09-12T03:50:05;25.80;99.90
11836;DHT22;5977;51.972;7.640;2023-09-12T03:52:33;25.80;99.90
11836;DHT22;5977;51.972;7.640;2023-09-12T03:55:01;25.80;99.90
11836;DHT22;5977;51.972;7.640;2023-09-12T03:57:30;25.70;99.90
11836;DHT22;5977;51.972;7.640;2023-09-12T03:59:59;25.80;99.90
11836;DHT22;5977;51.972;7.640;2023-09-12T04:02:27;25.80;99.90
11836;DHT22;5977;51.972;7.640;2023-09-12T04:04:55;25.70;99.90
11836;DHT22;5977;51.972;7.640;2023-09-12T04:07:26;25.70;99.90
11836;DHT22;5977;51.972;7.640;2023-09-12T04:09:54;25.80;99.90
11836;DHT22;5977;51.972;7.640;2023-09-12T04:12:22;25.70;99.90
11836;DHT22;5977;51.972;7.640;2023-09-12T04:14:52;25.80;99.90
11836;DHT22;5977;51.972;7.640;2023-09-12T04:17:21;25.70;99.90
11836;DHT22;5977;51.972;7.640;2023-09-12T04:19:49;25.80;99.90
11836;DHT22;5977;51.972;7.640;2023-09-12T04:22:18;25.70;99.90
11836;DHT22;5977;51.972;7.640;2023-09-12T04:24:49;25.80;99.90
11836;DHT22;5977;51.972;7.640;2023-09-12T04:27:17;25.70;99.90
11836;DHT22;5977;51.972;7.640;2023-09-12T04:29:45;25.70;99.90
11836;DHT22;5977;51.972;7.640;2023-09-12T04:32:15;25.70;99.90
11836;DHT22;5977;51.972;7.640;2023-09-12T04:34:50;25.70;99.90
11836;DHT22;5977;51.972;7.640;2023-09-12T04:37:18;25.70;99.90
11836;DHT22;5977;51.972;7.640;2023-09-12T04:39:46;25.70;99.90
11836;DHT22;5977;51.972;7.640;2023-09-12T04:42:14;25.70;99.90
11836;DHT22;5977;51.972;7.640;2023-09-12T04:44:42;25.70;99.90
11836;DHT22;5977;51.972;7.640;2023-09-12T04:47:10;25.70;99.90
11836;DHT22;5977;51.972;7.640;2023-09-12T04:49:40;25.70;99.90
11836;DHT22;5977;51.972;7.640;2023-09-12T04:52:08;25.70;99.90
11836;DHT22;5977;51.972;7.640;2023-09-12T04:54:36;25.70;99.90
11836;DHT22;5977;51.972;7.640;2023-09-12T04:57:04;25.70;99.90
11836;DHT22;5977;51.972;7.640;2023-09-12T04:59:32;25.70;99.90
11836;DHT22;5977;51.972;7.640;2023-09-12T05:02:00;25.70;99.90
11836;DHT22;5977;51.972;7.640;2023-09-12T05:04:28;25.70;99.90
11836;DHT22;5977;51.972;7.640;2023-09-12T05:06:58;25.70;99.90
11836;DHT22;5977;51.972;7.640;2023-09-12T05:09:26;25.70;99.90
11836;DHT22;5977;51.972;7.640;2023-09-12T05:11:54;25.70;99.90
11836;DHT22;5977;51.972;7.640;2023-09-12T05:14:22;25.60;99.90
11836;DHT22;5977;51.972;7.640;2023-09-12T05:16:50;25.70;99.90
11836;DHT22;5977;51.972;7.640;2023-09-12T05:19:18;25.60;99.90
11836;DHT22;5977;51.972;7.640;2023-09-12T05:21:45;25.60;99.90
11836;DHT22;5977;51.972;7.640;2023-09-12T05:24:15;25.70;99.90
11836;DHT22;5977;51.972;7.640;2023-09-12T05:26:43;25.60;99.90
11836;DHT22;5977;51.972;7.640;2023-09-12T05:29:11;25.60;99.90
11836;DHT22;5977;51.972;7.640;2023-09-12T05:31:39;25.70;99.90
11836;DHT22;5977;51.972;7.640;2023-09-12T05:34:08;25.70;99.90
11836;DHT22;5977;51.972;7.640;2023-09-12T05:36:35;25.70;99.90
11836;DHT22;5977;51.972;7.640;2023-09-12T05:39:03;25.60;99.90
11836;DHT22;5977;51.972;7.640;2023-09-12T05:41:33;25.60;99.90
11836;DHT22;5977;51.972;7.640;2023-09-12T05:44:01;25.60;99.90
11836;DHT22;5977;51.972;7.640;2023-09-12T05:46:29;25.60;99.90
11836;DHT22;5977;51.972;7.640;2023-09-12T05:48:57;25.60;99.90
11836;DHT22;5977;51.972;7.640;2023-09-12T05:51:25;25.70;99.90
11836;DHT22;5977;51.972;7.640;2023-09-12T05:53:53;25.60;99.90
11836;DHT22;5977;51.972;7.640;2023-09-12T05:56:21;25.60;99.90
11836;DHT22;5977;51.972;7.640;2023-09-12T05:58:50;25.60;99.90
11836;DHT22;5977;51.972;7.640;2023-09-12T06:01:18;25.60;99.90
11836;DHT22;5977;51.972;7.640;2023-09-12T06:03:46;25.60;99.90
11836;DHT22;5977;51.972;7.640;2023-09-12T06:06:14;25.70;99.90
11836;DHT22;5977;51.972;7.640;2023-09-12T06:08:43;25.50;99.90
11836;DHT22;5977;51.972;7.640;2023-09-12T06:11:11;24.70;99.90
11836;DHT22;5977;51.972;7.640;2023-09-12T06:13:38;24.10;99.90
11836;DHT22;5977;51.972;7.640;2023-09-12T06:16:08;23.60;99.90
11836;DHT22;5977;51.972;7.640;2023-09-12T06:18:35;23.50;99.90
11836;DHT22;5977;51.972;7.640;2023-09-12T06:21:03;23.80;99.90
11836;DHT22;5977;51.972;7.640;2023-09-12T06:23:36;23.40;99.90
11836;DHT22;5977;51.972;7.640;2023-09-12T06:26:04;23.30;99.90
11836;DHT22;5977;51.972;7.640;2023-09-12T06:28:32;23.70;99.90
11836;DHT22;5977;51.972;7.640;2023-09-12T06:31:00;24.20;99.90
11836;DHT22;5977;51.972;7.640;2023-09-12T06:33:29;24.20;99.90
11836;DHT22;5977;51.972;7.640;2023-09-12T06:35:57;24.20;99.90
11836;DHT22;5977;51.972;7.640;2023-09-12T06:38:25;24.00;99.90
11836;DHT22;5977;51.972;7.640;2023-09-12T06:40:53;24.00;99.90
11836;DHT22;5977;51.972;7.640;2023-09-12T06:43:22;23.60;99.90
11836;DHT22;5977;51.972;7.640;2023-09-12T06:45:50;23.10;99.90
11836;DHT22;5977;51.972;7.640;2023-09-12T06:48:18;22.30;99.90
11836;DHT22;5977;51.972;7.640;2023-09-12T06:50:47;21.80;99.90
11836;DHT22;5977;51.972;7.640;2023-09-12T06:53:19;22.20;99.90
11836;DHT22;5977;51.972;7.640;2023-09-12T06:55:47;22.50;99.90
11836;DHT22;5977;51.972;7.640;2023-09-12T06:58:15;23.00;99.90
11836;DHT22;5977;51.972;7.640;2023-09-12T07:00:43;23.60;99.90
11836;DHT22;5977;51.972;7.640;2023-09-12T07:03:11;23.20;99.90
11836;DHT22;5977;51.972;7.640;2023-09-12T07:05:43;23.10;99.90
11836;DHT22;5977;51.972;7.640;2023-09-12T07:08:12;22.80;99.90
11836;DHT22;5977;51.972;7.640;2023-09-12T07:10:44;22.20;99.90
11836;DHT22;5977;51.972;7.640;2023-09-12T07:13:12;22.60;99.90
11836;DHT22;5977;51.972;7.640;2023-09-12T07:15:40;22.90;99.90
11836;DHT22;5977;51.972;7.640;2023-09-12T07:18:08;23.40;99.90
11836;DHT22;5977;51.972;7.640;2023-09-12T07:20:36;23.20;99.90
11836;DHT22;5977;51.972;7.640;2023-09-12T07:23:04;23.00;99.90
11836;DHT22;5977;51.972;7.640;2023-09-12T07:25:38;23.20;99.90
11836;DHT22;5977;51.972;7.640;2023-09-12T07:28:07;23.60;99.90
11836;DHT22;5977;51.972;7.640;2023-09-12T07:30:35;23.80;99.90
11836;DHT22;5977;51.972;7.640;2023-09-12T07:33:04;23.60;99.90
11836;DHT22;5977;51.972;7.640;2023-09-12T07:35:32;23.70;99.90
11836;DHT22;5977;51.972;7.640;2023-09-12T07:38:01;23.50;99.90
11836;DHT22;5977;51.972;7.640;2023-09-12T07:40:29;23.40;99.90
11836;DHT22;5977;51.972;7.640;2023-09-12T07:42:59;23.30;99.90
11836;DHT22;5977;51.972;7.640;2023-09-12T07:45:26;23.70;99.90
11836;DHT22;5977;51.972;7.640;2023-09-12T07:47:56;24.10;99.90
11836;DHT22;5977;51.972;7.640;2023-09-12T07:50:24;24.30;99.90
11836;DHT22;5977;51.972;7.640;2023-09-12T07:52:52;24.20;99.90
11836;DHT22;5977;51.972;7.640;2023-09-12T07:55:23;24.10;99.90
11836;DHT22;5977;51.972;7.640;2023-09-12T07:57:51;23.80;99.90
11836;DHT22;5977;51.972;7.640;2023-09-12T08:00:20;23.40;99.90
11836;DHT22;5977;51.972;7.640;2023-09-12T08:02:48;23.10;99.90
11836;DHT22;5977;51.972;7.640;2023-09-12T08:05:17;22.70;99.90
11836;DHT22;5977;51.972;7.640;2023-09-12T08:07:45;22.80;99.90
11836;DHT22;5977;51.972;7.640;2023-09-12T08:10:13;22.70;99.90
11836;DHT22;5977;51.972;7.640;2023-09-12T08:12:41;22.60;99.90
11836;DHT22;5977;51.972;7.640;2023-09-12T08:15:09;22.80;99.90
11836;DHT22;5977;51.972;7.640;2023-09-12T08:17:39;22.70;99.90
11836;DHT22;5977;51.972;7.640;2023-09-12T08:20:08;22.80;99.90
11836;DHT22;5977;51.972;7.640;2023-09-12T08:22:37;22.90;99.90
11836;DHT22;5977;51.972;7.640;2023-09-12T08:25:06;22.70;99.90
11836;DHT22;5977;51.972;7.640;2023-09-12T08:27:34;22.60;99.90
11836;DHT22;5977;51.972;7.640;2023-09-12T08:30:02;22.70;99.90
11836;DHT22;5977;51.972;7.640;2023-09-12T08:32:30;22.50;99.90
11836;DHT22;5977;51.972;7.640;2023-09-12T08:34:59;22.70;99.90
11836;DHT22;5977;51.972;7.640;2023-09-12T08:37:27;22.60;99.90
11836;DHT22;5977;51.972;7.640;2023-09-12T08:39:55;22.40;99.90
11836;DHT22;5977;51.972;7.640;2023-09-12T08:42:26;22.70;99.90
11836;DHT22;5977;51.972;7.640;2023-09-12T08:44:55;22.90;99.90
11836;DHT22;5977;51.972;7.640;2023-09-12T08:47:25;22.60;99.90
11836;DHT22;5977;51.972;7.640;2023-09-12T08:49:54;22.30;99.90
11836;DHT22;5977;51.972;7.640;2023-09-12T08:52:25;22.30;99.90
11836;DHT22;5977;51.972;7.640;2023-09-12T08:54:53;22.20;99.90
11836;DHT22;5977;51.972;7.640;2023-09-12T08:57:22;22.20;99.90
11836;DHT22;5977;51.972;7.640;2023-09-12T08:59:50;22.60;99.90
11836;DHT22;5977;51.972;7.640;2023-09-12T09:02:20;22.60;99.90
11836;DHT22;5977;51.972;7.640;2023-09-12T09:04:49;22.80;99.90
11836;DHT22;5977;51.972;7.640;2023-09-12T09:07:20;22.90;99.90
11836;DHT22;5977;51.972;7.640;2023-09-12T09:09:50;22.70;99.90
11836;DHT22;5977;51.972;7.640;2023-09-12T09:12:20;22.80;99.90
11836;DHT22;5977;51.972;7.640;2023-09-12T09:14:48;23.30;99.90
11836;DHT22;5977;51.972;7.640;2023-09-12T09:17:16;23.70;99.90
11836;DHT22;5977;51.972;7.640;2023-09-12T09:20:00;23.80;99.90
11836;DHT22;5977;51.972;7.640;2023-09-12T09:22:28;23.30;99.90
11836;DHT22;5977;51.972;7.640;2023-09-12T09:25:09;23.10;99.90
11836;DHT22;5977;51.972;7.640;2023-09-12T09:27:38;23.10;99.90
11836;DHT22;5977;51.972;7.640;2023-09-12T09:30:06;22.90;99.90
11836;DHT22;5977;51.972;7.640;2023-09-12T09:32:35;23.00;99.90
11836;DHT22;5977;51.972;7.640;2023-09-12T09:35:04;22.90;99.90
11836;DHT22;5977;51.972;7.640;2023-09-12T09:37:33;23.00;99.90
11836;DHT22;5977;51.972;7.640;2023-09-12T09:40:01;23.00;99.90
11836;DHT22;5977;51.972;7.640;2023-09-12T09:42:34;22.90;99.90
11836;DHT22;5977;51.972;7.640;2023-09-12T09:45:03;23.00;99.90
11836;DHT22;5977;51.972;7.640;2023-09-12T09:47:31;23.10;99.90
11836;DHT22;5977;51.972;7.640;2023-09-12T09:49:59;23.10;99.90
11836;DHT22;5977;51.972;7.640;2023-09-12T09:52:27;23.00;99.90
11836;DHT22;5977;51.972;7.640;2023-09-12T09:54:55;23.00;99.90
11836;DHT22;5977;51.972;7.640;2023-09-12T09:57:25;23.00;99.90
11836;DHT22;5977;51.972;7.640;2023-09-12T09:59:55;23.00;99.90
11836;DHT22;5977;51.972;7.640;2023-09-12T10:02:25;23.20;99.90
11836;DHT22;5977;51.972;7.640;2023-09-12T10:04:55;23.40;99.90
11836;DHT22;5977;51.972;7.640;2023-09-12T10:07:28;23.30;99.90
11836;DHT22;5977;51.972;7.640;2023-09-12T10:10:02;23.40;99.90
11836;DHT22;5977;51.972;7.640;2023-09-12T10:12:31;23.40;99.90
11836;DHT22;5977;51.972;7.640;2023-09-12T10:15:04;23.30;99.90
11836;DHT22;5977;51.972;7.640;2023-09-12T10:17:36;23.30;99.90
11836;DHT22;5977;51.972;7.640;2023-09-12T10:20:10;23.50;99.90
11836;DHT22;5977;51.972;7.640;2023-09-12T10:22:43;23.50;99.90
11836;DHT22;5977;51.972;7.640;2023-09-12T10:25:13;23.70;99.90
11836;DHT22;5977;51.972;7.640;2023-09-12T10:27:41;23.60;99.90
11836;DHT22;5977;51.972;7.640;2023-09-12T10:30:11;23.60;99.90
11836;DHT22;5977;51.972;7.640;2023-09-12T10:32:40;23.70;99.90
11836;DHT22;5977;51.972;7.640;2023-09-12T10:35:09;24.00;99.90
11836;DHT22;5977;51.972;7.640;2023-09-12T10:37:38;24.10;99.90
11836;DHT22;5977;51.972;7.640;2023-09-12T10:40:09;24.40;99.90
11836;DHT22;5977;51.972;7.640;2023-09-12T10:42:39;24.50;99.90
11836;DHT22;5977;51.972;7.640;2023-09-12T10:45:08;24.40;99.90
11836;DHT22;5977;51.972;7.640;2023-09-12T10:47:38;24.60;99.90
11836;DHT22;5977;51.972;7.640;2023-09-12T10:50:07;24.50;99.90
11836;DHT22;5977;51.972;7.640;2023-09-12T10:52:35;24.60;99.90
11836;DHT22;5977;51.972;7.640;2023-09-12T10:55:07;24.70;99.90
11836;DHT22;5977;51.972;7.640;2023-09-12T10:57:35;24.50;99.90
11836;DHT22;5977;51.972;7.640;2023-09-12T11:00:23;24.40;99.90
11836;DHT22;5977;51.972;7.640;2023-09-12T11:02:52;24.50;99.90
11836;DHT22;5977;51.972;7.640;2023-09-12T11:05:37;24.50;99.90
11836;DHT22;5977;51.972;7.640;2023-09-12T11:08:05;24.30;99.90
11836;DHT22;5977;51.972;7.640;2023-09-12T11:10:33;24.30;99.90
11836;DHT22;5977;51.972;7.640;2023-09-12T11:13:01;24.20;99.90
11836;DHT22;5977;51.972;7.640;2023-09-12T11:15:31;24.70;99.90
11836;DHT22;5977;51.972;7.640;2023-09-12T11:18:04;24.80;99.90
11836;DHT22;5977;51.972;7.640;2023-09-12T11:20:50;24.80;99.90
11836;DHT22;5977;51.972;7.640;2023-09-12T11:23:19;25.10;99.90
11836;DHT22;5977;51.972;7.640;2023-09-12T11:25:47;24.90;99.90
11836;DHT22;5977;51.972;7.640;2023-09-12T11:28:15;24.90;99.90
11836;DHT22;5977;51.972;7.640;2023-09-12T11:30:56;24.70;99.90
11836;DHT22;5977;51.972;7.640;2023-09-12T11:33:26;24.80;99.90
11836;DHT22;5977;51.972;7.640;2023-09-12T11:35:55;24.90;99.90
11836;DHT22;5977;51.972;7.640;2023-09-12T11:38:28;24.70;99.90
11836;DHT22;5977;51.972;7.640;2023-09-12T11:40:58;24.80;99.90
11836;DHT22;5977;51.972;7.640;2023-09-12T11:43:27;24.90;99.90
11836;DHT22;5977;51.972;7.640;2023-09-12T11:45:57;25.00;99.90
11836;DHT22;5977;51.972;7.640;2023-09-12T11:48:28;24.90;99.90
11836;DHT22;5977;51.972;7.640;2023-09-12T11:50:57;25.00;99.90
11836;DHT22;5977;51.972;7.640;2023-09-12T11:53:27;24.90;99.90
11836;DHT22;5977;51.972;7.640;2023-09-12T11:55:58;24.90;99.90
11836;DHT22;5977;51.972;7.640;2023-09-12T11:58:27;24.90;99.90
11836;DHT22;5977;51.972;7.640;2023-09-12T12:00:56;24.80;99.90
11836;DHT22;5977;51.972;7.640;2023-09-12T12:03:27;25.00;99.90
11836;DHT22;5977;51.972;7.640;2023-09-12T12:05:56;24.80;99.90
11836;DHT22;5977;51.972;7.640;2023-09-12T12:08:24;24.80;99.90
11836;DHT22;5977;51.972;7.640;2023-09-12T12:10:59;24.80;99.90
11836;DHT22;5977;51.972;7.640;2023-09-12T12:13:27;24.80;99.90
11836;DHT22;5977;51.972;7.640;2023-09-12T12:15:56;24.90;99.90
11836;DHT22;5977;51.972;7.640;2023-09-12T12:18:26;25.10;99.90
11836;DHT22;5977;51.972;7.640;2023-09-12T12:20:54;25.40;99.90
11836;DHT22;5977;51.972;7.640;2023-09-12T12:23:22;25.70;99.90
11836;DHT22;5977;51.972;7.640;2023-09-12T12:25:50;25.50;99.90
11836;DHT22;5977;51.972;7.640;2023-09-12T12:28:18;25.30;99.90
11836;DHT22;5977;51.972;7.640;2023-09-12T12:30:46;25.10;99.90
11836;DHT22;5977;51.972;7.640;2023-09-12T12:33:18;25.20;99.90
11836;DHT22;5977;51.972;7.640;2023-09-12T12:36:07;25.30;99.90
11836;DHT22;5977;51.972;7.640;2023-09-12T12:38:37;25.30;99.90
11836;DHT22;5977;51.972;7.640;2023-09-12T12:41:21;25.30;99.90
11836;DHT22;5977;51.972;7.640;2023-09-12T12:43:50;25.20;99.90
11836;DHT22;5977;51.972;7.640;2023-09-12T12:46:20;25.10;99.90
11836;DHT22;5977;51.972;7.640;2023-09-12T12:48:48;25.30;99.90
11836;DHT22;5977;51.972;7.640;2023-09-12T12:51:19;25.30;99.90
11836;DHT22;5977;51.972;7.640;2023-09-12T12:53:50;25.30;99.90
11836;DHT22;5977;51.972;7.640;2023-09-12T12:56:21;25.20;99.90
11836;DHT22;5977;51.972;7.640;2023-09-12T12:58:51;25.30;99.90
11836;DHT22;5977;51.972;7.640;2023-09-12T13:01:19;25.20;99.90
11836;DHT22;5977;51.972;7.640;2023-09-12T13:03:47;25.20;99.90
11836;DHT22;5977;51.972;7.640;2023-09-12T13:06:19;25.20;99.90
11836;DHT22;5977;51.972;7.640;2023-09-12T13:08:49;25.20;99.90
11836;DHT22;5977;51.972;7.640;2023-09-12T13:11:17;25.20;99.90
11836;DHT22;5977;51.972;7.640;2023-09-12T13:13:47;25.20;99.90
11836;DHT22;5977;51.972;7.640;2023-09-12T13:16:16;25.30;99.90
11836;DHT22;5977;51.972;7.640;2023-09-12T13:18:44;25.30;99.90
11836;DHT22;5977;51.972;7.640;2023-09-12T13:21:12;25.30;99.90
11836;DHT22;5977;51.972;7.640;2023-09-12T13:23:41;25.30;99.90
11836;DHT22;5977;51.972;7.640;2023-09-12T13:26:10;25.30;99.90
11836;DHT22;5977;51.972;7.640;2023-09-12T13:28:38;25.30;99.90
11836;DHT22;5977;51.972;7.640;2023-09-12T13:31:06;25.30;99.90
11836;DHT22;5977;51.972;7.640;2023-09-12T13:33:34;25.30;99.90
11836;DHT22;5977;51.972;7.640;2023-09-12T13:36:02;25.30;99.90
11836;DHT22;5977;51.972;7.640;2023-09-12T13:38:30;25.30;99.90
11836;DHT22;5977;51.972;7.640;2023-09-12T13:41:00;25.30;99.90
11836;DHT22;5977;51.972;7.640;2023-09-12T13:43:28;25.20;99.90
11836;DHT22;5977;51.972;7.640;2023-09-12T13:45:56;25.30;99.90
11836;DHT22;5977;51.972;7.640;2023-09-12T13:48:24;25.30;99.90
11836;DHT22;5977;51.972;7.640;2023-09-12T13:50:52;25.50;99.90
11836;DHT22;5977;51.972;7.640;2023-09-12T13:53:20;25.40;99.90
11836;DHT22;5977;51.972;7.640;2023-09-12T13:55:48;25.40;99.90
11836;DHT22;5977;51.972;7.640;2023-09-12T13:58:37;25.50;99.90
11836;DHT22;5977;51.972;7.640;2023-09-12T14:01:09;25.50;99.90
11836;DHT22;5977;51.972;7.640;2023-09-12T14:03:43;25.40;99.90
11836;DHT22;5977;51.972;7.640;2023-09-12T14:06:12;25.50;99.90
11836;DHT22;5977;51.972;7.640;2023-09-12T14:08:40;25.70;99.90
11836;DHT22;5977;51.972;7.640;2023-09-12T14:11:10;25.90;99.90
11836;DHT22;5977;51.972;7.640;2023-09-12T14:13:55;25.90;99.90
11836;DHT22;5977;51.972;7.640;2023-09-12T14:16:39;25.90;99.90
11836;DHT22;5977;51.972;7.640;2023-09-12T14:19:08;25.80;99.90
11836;DHT22;5977;51.972;7.640;2023-09-12T14:21:37;25.80;99.90
11836;DHT22;5977;51.972;7.640;2023-09-12T14:24:07;25.80;99.90
11836;DHT22;5977;51.972;7.640;2023-09-12T14:26:36;25.70;99.90
11836;DHT22;5977;51.972;7.640;2023-09-12T14:29:06;25.70;99.90
11836;DHT22;5977;51.972;7.640;2023-09-12T14:31:34;25.80;99.90
11836;DHT22;5977;51.972;7.640;2023-09-12T14:34:04;25.70;99.90
11836;DHT22;5977;51.972;7.640;2023-09-12T14:36:35;25.70;99.90
11836;DHT22;5977;51.972;7.640;2023-09-12T14:39:03;25.80;99.90
11836;DHT22;5977;51.972;7.640;2023-09-12T14:41:31;25.70;99.90
11836;DHT22;5977;51.972;7.640;2023-09-12T14:43:59;25.60;99.90
11836;DHT22;5977;51.972;7.640;2023-09-12T14:46:29;25.60;99.90
11836;DHT22;5977;51.972;7.640;2023-09-12T14:48:57;25.60;99.90
11836;DHT22;5977;51.972;7.640;2023-09-12T14:51:29;25.60;99.90
11836;DHT22;5977;51.972;7.640;2023-09-12T14:54:00;25.60;99.90
11836;DHT22;5977;51.972;7.640;2023-09-12T14:56:29;25.60;99.90
11836;DHT22;5977;51.972;7.640;2023-09-12T14:58:56;25.70;99.90
11836;DHT22;5977;51.972;7.640;2023-09-12T15:01:24;25.70;99.90
11836;DHT22;5977;51.972;7.640;2023-09-12T15:03:54;25.70;99.90
11836;DHT22;5977;51.972;7.640;2023-09-12T15:06:23;25.80;99.90
11836;DHT22;5977;51.972;7.640;2023-09-12T15:08:51;25.70;99.90
11836;DHT22;5977;51.972;7.640;2023-09-12T15:11:19;25.70;99.90
11836;DHT22;5977;51.972;7.640;2023-09-12T15:13:47;25.60;99.90
11836;DHT22;5977;51.972;7.640;2023-09-12T15:16:16;25.70;99.90
11836;DHT22;5977;51.972;7.640;2023-09-12T15:18:44;25.70;99.90
11836;DHT22;5977;51.972;7.640;2023-09-12T15:21:13;25.60;99.90
11836;DHT22;5977;51.972;7.640;2023-09-12T15:23:41;25.50;99.90
11836;DHT22;5977;51.972;7.640;2023-09-12T15:26:09;25.50;99.90
11836;DHT22;5977;51.972;7.640;2023-09-12T15:28:38;25.60;99.90
11836;DHT22;5977;51.972;7.640;2023-09-12T15:31:05;25.70;99.90
11836;DHT22;5977;51.972;7.640;2023-09-12T15:33:34;25.70;99.90
11836;DHT22;5977;51.972;7.640;2023-09-12T15:36:02;25.70;99.90
11836;DHT22;5977;51.972;7.640;2023-09-12T15:38:31;25.70;99.90
11836;DHT22;5977;51.972;7.640;2023-09-12T15:41:00;25.70;99.90
11836;DHT22;5977;51.972;7.640;2023-09-12T15:43:29;25.70;99.90
11836;DHT22;5977;51.972;7.640;2023-09-12T15:45:57;25.70;99.90
11836;DHT22;5977;51.972;7.640;2023-09-12T15:48:25;25.70;99.90
11836;DHT22;5977;51.972;7.640;2023-09-12T15:50:54;25.60;99.90
11836;DHT22;5977;51.972;7.640;2023-09-12T15:53:22;25.60;99.90
11836;DHT22;5977;51.972;7.640;2023-09-12T15:55:52;25.70;99.90
11836;DHT22;5977;51.972;7.640;2023-09-12T15:58:20;25.60;99.90